• Join FlightAware (Why Join?)
  • Login
  • US Flag 
03:27PM EST


 

Airport Tracker/Info


-or-


 

Live Flight TrackerFlight Track Log ✈ FLG4262 ✈ 25-Sep-2013 ✈ KDTW - KBGM

Flight Track Log - Related Links

Times and Time Zones

All times are in EDT time to prevent confusion due to time zone crossing. See the FLG4262 flight status page for this flight to view local times or setup timezone preferences in your user account.

Time Position Orientation Groundspeed Altitude Reporting Facility
EDT Latitude Longitude Course Direction KTS MPH feet Rate Location/Type
03:47PM 42.1900 -83.3564 94° East 170 196 1,200  Level Cleveland Center
03:48PM 42.1525 -83.3567 180° South 191 220 2,800 2,280 Climbing Cleveland Center
03:49PM 42.1197 -83.3381 157° South 265 305 4,400 2,040 Climbing Cleveland Center
03:49PM 42.1042 -83.3022 120° Southeast 237 273 5,100 1,800 Climbing Cleveland Center
03:50PM 42.0844 -83.2525 118° Southeast 261 300 6,300 2,340 Climbing Cleveland Center
03:50PM 42.0714 -83.2131 114° Southeast 277 319 7,500 2,220 Climbing Cleveland Center
03:51PM 42.0744 -83.1600 86° East 273 314 8,600 2,400 Climbing Cleveland Center
03:51PM 42.0975 -83.1156 55° Northeast 279 321 10,000 2,100 Climbing Cleveland Center
03:52PM 42.1128 -83.0686 66° East 281 323 10,800 1,080 Climbing Cleveland Center
03:53PM 42.2370 -82.4637 94° East  Level Estimated
03:53PM 42.1567 -82.9617 61° Northeast 329 379 11,800  Level Cleveland Center
03:54PM 42.2153 -82.8178 61° Northeast 367 422 13,000 1,020 Climbing Cleveland Center
03:55PM 42.2686 -82.6919 60° Northeast 387 445 14,000 960 Climbing Cleveland Center
03:56PM 42.3211 -82.5625 61° Northeast 394 453 15,100 1,080 Climbing Cleveland Center
03:57PM 42.3644 -82.4261 67° East 407 468 16,300 1,200 Climbing Cleveland Center
03:58PM 42.3603 -82.2739 92° East 405 466 17,600 1,200 Climbing Cleveland Center
03:59PM 42.3531 -82.0972 93° East 407 468 18,900 1,020 Climbing Cleveland Center
04:00PM 42.3461 -81.9419 93° East 409 471 19,800 900 Climbing Cleveland Center
04:01PM 42.3381 -81.7867 94° East 411 473 20,800 900 Climbing Cleveland Center
04:02PM 42.3317 -81.6269 93° East 419 482 21,700 840 Climbing Cleveland Center
04:03PM 42.3242 -81.4717 94° East 412 474 22,600 780 Climbing Cleveland Center
04:04PM 42.3167 -81.3164 94° East 410 472 23,400 720 Climbing Cleveland Center
04:05PM 42.3072 -81.1303 94° East 418 481 24,200 720 Climbing Cleveland Center
04:06PM 42.2989 -80.9747 94° East 413 475 24,900 960 Climbing Cleveland Center
04:07PM 42.2911 -80.8169 94° East 415 478 26,200 1,200 Climbing Cleveland Center
04:08PM 42.2839 -80.6686 94° East 396 456 27,500 840 Climbing Cleveland Center
04:09PM 42.2744 -80.5192 95° East 395 455 28,000 480 Climbing Cleveland Center
04:10PM 42.2664 -80.3639 94° East 407 468 28,500 480 Climbing Cleveland Center
04:11PM 42.2567 -80.2072 95° East 414 476 29,000 240 Climbing Cleveland Center
04:13PM 42.2456 -80.0194 95° East 426 490 29,000  Level Cleveland Center
04:14PM 42.2361 -79.8647 95° East 438 504 29,000  Level Cleveland Center
04:15PM 42.2258 -79.6986 95° East 446 513 29,000  Level Cleveland Center
04:16PM 42.2147 -79.5303 95° East 451 519 29,000  Level Cleveland Center
04:17PM 42.2008 -79.3261 95° East 456 525 29,000 -240 Level Cleveland Center
04:18PM 42.1897 -79.1553 95° East 458 527 28,600 -480 Descending Cleveland Center
04:19PM 42.1908 -78.9817 89° East 463 533 28,100 -300 Descending Cleveland Center
04:20PM 42.1936 -78.7881 89° East 466 536 28,000 -120 Descending Cleveland Center
04:21PM 42.1969 -78.6150 88° East 465 535 27,900 -300 Descending Cleveland Center
04:22PM 42.2000 -78.4411 89° East 466 536 27,400 -540 Descending Cleveland Center
04:23PM 42.2014 -78.2656 89° East 469 540 26,900 -600 Descending Cleveland Center
04:24PM 42.2031 -78.0892 89° East 473 544 26,200 -960 Descending Cleveland Center
04:25PM 42.2061 -77.8867 89° East 460 529 25,000 -1,080 Descending Cleveland Center
04:26PM 42.2069 -77.7144 90° East 461 531 24,000 -960 Descending Cleveland Center
04:27PM 42.2075 -77.5392 90° East 471 542 23,000 -1,260 Descending Cleveland Center
04:28PM 42.2092 -77.3703 89° East 456 525 21,500 -1,500 Descending Cleveland Center
04:29PM 42.2089 -77.2050 90° East 445 512 20,000 -1,620 Descending Cleveland Center
04:30PM 42.2097 -77.0419 90° East 449 517 18,500 -2,220 Descending New York Center
04:31PM 42.2097 -76.8825 90° East 439 505 16,000 -3,000 Descending New York Center
04:32PM 42.2122 -76.7483 89° East 410 472 12,600 -2,340 Descending New York Center
04:33PM 42.2211 -76.6119 85° East 380 437 11,400 -1,440 Descending New York Center
04:34PM 42.2286 -76.5006 85° East 336 387 9,800 -1,800 Descending New York Center
04:35PM 42.2356 -76.3975 85° East 298 343 7,900 -1,980 Descending New York Center
04:36PM 42.2025 -76.3050 116° Southeast 267 307 5,900 -1,920 Descending New York Center
04:37PM 42.1606 -76.2206 124° Southeast 267 307 4,100 -960 Descending New York Center
04:38PM 42.1186 -76.1386 125° Southeast 267 307 4,000 -60 Descending New York Center
04:39PM 42.0844 -76.0633 121° Southeast 254 292 4,000 -60 Level New York Center
04:40PM 42.0981 -75.9889 76° East 216 249 3,900 -360 Descending New York Center
04:41PM 42.1275 -75.9381 52° Northeast 164 189 3,300 -660 Descending New York Center
04:42PM 42.1628 -75.9408 357° North 120 138 2,600 -600 Descending New York Center
04:43PM 42.1978 -75.9492 350° North 103 119 2,100 3,120 Descending New York Center
04:44PM 42.2292 -75.9461 North 103 119 9,000 3,420 Climbing New York Center
04:45PM 42.2606 -75.9403 North 103 119 9,000  Level New York Center